Arviat Airport
CYEK : now visible

Aeroporto :











RITROVATECI SU...

 
LOGIN :

Iscrizione | Disclaimer

   EN    FR    IT 

 









Sommario :    VFR   VFR Marginale   IFR   IFR Intensivo   IFR Molto Intensivo
Visibilità : 
Base nubi : 
>= 8 km
>= 3000ft
5 / 8 km
1000 / 3000 ft
1500m / 5 km
500 / 1000 ft
800 / 1500m
200 / 500 ft
< 800m
< 200 ft
Simboli :   Temporali  Nebbia  Neve Forte  Precipitazioni Forti  Vento > 20 kt






- Altitudine del aeroporto : 32 ft
- Codice IATA : YEK


CYEK - Arviat

ULTIMO METAR :
  • 251500Z 33016KT 7SM IC DRSN SKC M27/M31 A3065 RMK SLP383

METARs OBSOLETI :
  • 251400Z 33015KT 8SM IC SKC M28/M31 A3065 RMK SLP381
  • 251300Z 33015KT 4SM IC SKC M28/M31 A3063 RMK AFT 00UTC/24.0CM/S TR/SNW CVR/TRACE LOOSE SLP376
  • 251237Z AUTO 33012G17KT 5SM HZ CLR M27/M30 A3064 RMK SLP377

TAF TAF CYEK
Valido dal 25 a 12 ore il 26 a 00 ore UTC


251138Z 2512/2524 32014KT P6SM SKC
TEMPO 2512/2515 5SM IC RMK FCST BASED ON AUTO OBS. AUTO OBS NON-REPRESENTATIVE OF CRNT WX. NXT FCST BY 251800Z



MetMap, La meteo Aeronautica in un colpo d'occhio ! - Copyright ORBIFLY Dicembre 2007 - Disclaimer

ORBIFLY MET'MAP TEAM :

Programmazione e sviluppo : Alexandra Zaïnal
Concezione : Baudouin d'Aumeries
Aiuto per la programmazione : Marc-Olivier Méhu
Supporto tecnico e logistico : Manuel Goepfert
Aiuto per la traduzione : Arnaldo La Scala

Contatto : metmap@orbifly.com




FONTI E CREDITI :

   NOAA       Earth
Advisory